Time;durP1;ratioP1;P1;durP2;ratioP2;P2;SDS_P1;SDS_P2;PMS_P1;PMS_P2;Temp;Humidity;BMP_temperature;BMP_pressure;BME280_temperature;BME280_humidity;BME280_pressure;Samples;Min_cycle;Max_cycle;Signal;HPM_P1;HPM_P2
2021/08/13 00:01:08;;;;;;;;;13.00;8.67;;;;;;;;5007565;28;45694;-90
2021/08/13 00:03:33;;;;;;;;;11.75;9.25;;;;;;;;5016868;28;46620;-90
2021/08/13 00:08:28;;;;;;;;;9.00;9.00;;;;;;;;4977858;28;45467;-80
2021/08/13 00:10:53;;;;;;;;;10.00;10.00;;;;;;;;4980914;28;45712;-79
2021/08/13 00:13:18;;;;;;;;;10.75;9.25;;;;;;;;4974117;28;46705;-80
2021/08/13 00:15:44;;;;;;;;;10.00;9.75;;;;;;;;4980080;28;45740;-80
2021/08/13 00:18:09;;;;;;;;;9.25;9.25;;;;;;;;4979320;28;45690;-80
2021/08/13 00:20:35;;;;;;;;;12.00;9.50;;;;;;;;4977481;28;45437;-80
2021/08/13 00:23:00;;;;;;;;;10.75;8.00;;;;;;;;4980459;28;46244;-80
2021/08/13 00:25:26;;;;;;;;;8.00;8.00;;;;;;;;5036804;22;45770;-80
2021/08/13 00:27:51;;;;;;;;;11.00;9.75;;;;;;;;5019760;28;45944;-79
2021/08/13 00:30:16;;;;;;;;;12.75;9.50;;;;;;;;5153081;22;45694;-89
2021/08/13 00:32:41;;;;;;;;;11.00;9.00;;;;;;;;5000806;28;45487;-90
2021/08/13 00:35:07;;;;;;;;;8.75;8.75;;;;;;;;5009627;28;47238;-91
2021/08/13 00:37:32;;;;;;;;;9.25;8.75;;;;;;;;5007384;28;45855;-89
2021/08/13 00:39:58;;;;;;;;;9.75;9.75;;;;;;;;5009065;28;45757;-90
2021/08/13 00:42:23;;;;;;;;;13.75;11.00;;;;;;;;4999545;28;46372;-90
2021/08/13 00:44:49;;;;;;;;;9.75;8.00;;;;;;;;5128951;22;45619;-79
2021/08/13 00:47:14;;;;;;;;;10.00;9.75;;;;;;;;4995971;28;45595;-79
2021/08/13 00:49:40;;;;;;;;;9.00;9.00;;;;;;;;5009000;28;45588;-81
2021/08/13 00:52:05;;;;;;;;;11.00;8.50;;;;;;;;5044667;22;46452;-90
2021/08/13 00:54:30;;;;;;;;;14.25;10.25;;;;;;;;4989122;28;45476;-90
2021/08/13 00:56:56;;;;;;;;;16.67;11.67;;;;;;;;4988838;28;46070;-89
2021/08/13 00:59:21;;;;;;;;;9.50;9.50;;;;;;;;4994713;28;45486;-89
2021/08/13 01:01:46;;;;;;;;;13.33;10.00;;;;;;;;5025831;22;46836;-79
2021/08/13 01:04:12;;;;;;;;;8.75;8.25;;;;;;;;5007168;28;45570;-80
2021/08/13 01:06:37;;;;;;;;;12.25;10.00;;;;;;;;5011110;28;45565;-79
2021/08/13 01:09:03;;;;;;;;;14.00;10.00;;;;;;;;5010320;28;45544;-81
2021/08/13 01:11:28;;;;;;;;;9.75;8.25;;;;;;;;5004526;28;46339;-79
2021/08/13 01:14:03;;;;;;;;;10.00;7.67;;;;;;;;5018803;28;45481;-79
2021/08/13 01:16:29;;;;;;;;;10.25;7.75;;;;;;;;5054234;22;46082;-81
2021/08/13 01:18:59;;;;;;;;;11.50;8.00;;;;;;;;5253421;22;45929;-79
2021/08/13 01:21:45;;;;;;;;;8.50;8.50;;;;;;;;5010292;22;45657;-79
2021/08/13 01:24:20;;;;;;;;;9.25;8.00;;;;;;;;4975976;28;45486;-78
2021/08/13 01:26:51;;;;;;;;;12.00;10.00;;;;;;;;5238695;22;45547;-90
2021/08/13 01:29:30;;;;;;;;;9.75;9.75;;;;;;;;5045568;22;45727;-90
2021/08/13 01:32:11;;;;;;;;;10.00;10.00;;;;;;;;4973824;28;45663;-90
2021/08/13 01:34:39;;;;;;;;;11.00;9.75;;;;;;;;5028921;22;45670;-92
2021/08/13 01:37:06;;;;;;;;;9.75;7.75;;;;;;;;4983716;28;45412;-90
2021/08/13 01:39:32;;;;;;;;;10.75;8.00;;;;;;;;4991808;28;46063;-89
2021/08/13 01:41:57;;;;;;;;;10.25;9.00;;;;;;;;5026271;22;48107;-91
2021/08/13 01:44:24;;;;;;;;;12.00;9.25;;;;;;;;5027301;22;45527;-90
2021/08/13 01:46:50;;;;;;;;;9.00;7.50;;;;;;;;5011369;28;45399;-90
2021/08/13 01:49:17;;;;;;;;;9.00;7.75;;;;;;;;5001077;28;45871;-90
2021/08/13 01:51:43;;;;;;;;;10.25;8.75;;;;;;;;5006650;28;48194;-91
2021/08/13 01:54:09;;;;;;;;;8.75;7.75;;;;;;;;5011821;28;46094;-90
2021/08/13 01:56:34;;;;;;;;;6.75;6.75;;;;;;;;5017360;28;45726;-91
2021/08/13 01:59:01;;;;;;;;;9.00;9.00;;;;;;;;5010282;28;45501;-90
2021/08/13 02:01:31;;;;;;;;;9.25;8.00;;;;;;;;5011621;28;45733;-90
2021/08/13 02:04:12;;;;;;;;;8.00;7.75;;;;;;;;5020307;28;47513;-90
2021/08/13 02:06:38;;;;;;;;;11.50;8.75;;;;;;;;5007252;28;45360;-90
2021/08/13 02:09:03;;;;;;;;;10.00;7.25;;;;;;;;5013171;28;45637;-90
2021/08/13 02:11:34;;;;;;;;;10.75;8.50;;;;;;;;5019372;28;46576;-91
2021/08/13 02:14:00;;;;;;;;;10.50;9.75;;;;;;;;5011848;28;45505;-90
2021/08/13 02:16:26;;;;;;;;;10.25;8.50;;;;;;;;5010129;28;45509;-90
2021/08/13 02:19:15;;;;;;;;;11.25;11.00;;;;;;;;5013184;28;45661;-91
2021/08/13 02:24:20;;;;;;;;;7.75;7.00;;;;;;;;4990885;28;45325;-91
2021/08/13 02:26:46;;;;;;;;;8.50;7.00;;;;;;;;4992971;28;45499;-91
2021/08/13 02:29:12;;;;;;;;;9.75;8.00;;;;;;;;4992946;28;45328;-90
2021/08/13 02:31:37;;;;;;;;;11.33;9.00;;;;;;;;4993401;28;48057;-91
2021/08/13 02:34:03;;;;;;;;;7.50;6.25;;;;;;;;5058660;23;45509;-91
2021/08/13 02:36:36;;;;;;;;;10.25;8.75;;;;;;;;5011550;28;45570;-90
2021/08/13 02:39:03;;;;;;;;;8.25;8.00;;;;;;;;5010252;28;45376;-89
2021/08/13 02:41:32;;;;;;;;;8.00;6.00;;;;;;;;5063258;22;47054;-79
2021/08/13 02:43:59;;;;;;;;;8.75;7.00;;;;;;;;5064136;22;45642;-79
2021/08/13 02:46:30;;;;;;;;;8.75;8.50;;;;;;;;4993247;28;50791;-79
2021/08/13 02:48:56;;;;;;;;;7.75;7.00;;;;;;;;4997630;28;45781;-79
2021/08/13 02:51:23;;;;;;;;;7.00;7.00;;;;;;;;4997199;28;46168;-79
2021/08/13 02:53:52;;;;;;;;;11.00;8.50;;;;;;;;4996297;28;45520;-79
2021/08/13 02:56:19;;;;;;;;;10.50;8.00;;;;;;;;4994537;28;45659;-79
2021/08/13 02:58:46;;;;;;;;;8.50;7.50;;;;;;;;5096716;22;45491;-79
2021/08/13 03:01:13;;;;;;;;;10.50;8.25;;;;;;;;4996998;28;45490;-79
2021/08/13 03:03:40;;;;;;;;;13.75;8.50;;;;;;;;4994423;28;46280;-80
2021/08/13 03:06:25;;;;;;;;;8.75;8.00;;;;;;;;5021200;28;45573;-79
2021/08/13 03:08:51;;;;;;;;;9.25;9.25;;;;;;;;5312901;23;45623;-79
2021/08/13 03:11:24;;;;;;;;;7.75;7.75;;;;;;;;5031257;22;47026;-79
2021/08/13 03:13:49;;;;;;;;;6.50;6.50;;;;;;;;5093503;22;45666;-79
2021/08/13 03:16:15;;;;;;;;;8.75;8.75;;;;;;;;5001472;28;45565;-80
2021/08/13 03:18:40;;;;;;;;;7.25;7.25;;;;;;;;4997892;28;46269;-79
2021/08/13 03:21:06;;;;;;;;;7.75;7.00;;;;;;;;4995026;28;45434;-79
2021/08/13 03:23:31;;;;;;;;;8.75;6.25;;;;;;;;5000339;28;45470;-79
2021/08/13 03:25:57;;;;;;;;;8.50;7.50;;;;;;;;5001541;28;45560;-79
2021/08/13 03:28:22;;;;;;;;;8.50;7.75;;;;;;;;5002419;28;45538;-79
2021/08/13 03:30:48;;;;;;;;;12.00;9.00;;;;;;;;5004330;28;47671;-79
2021/08/13 03:33:14;;;;;;;;;9.75;7.75;;;;;;;;5045211;23;46235;-79
2021/08/13 03:35:40;;;;;;;;;5.25;5.25;;;;;;;;5015348;28;45615;-80
2021/08/13 03:38:06;;;;;;;;;10.00;8.00;;;;;;;;5029275;28;45544;-79
2021/08/13 03:40:31;;;;;;;;;8.50;6.25;;;;;;;;5025742;28;45547;-80
2021/08/13 03:42:56;;;;;;;;;6.00;6.00;;;;;;;;5024138;28;53603;-79
2021/08/13 03:45:22;;;;;;;;;9.25;7.50;;;;;;;;5027887;28;45650;-79
2021/08/13 03:47:47;;;;;;;;;8.00;7.00;;;;;;;;5025694;28;45607;-79
2021/08/13 03:50:12;;;;;;;;;5.75;5.50;;;;;;;;5092620;22;46615;-79
2021/08/13 03:52:38;;;;;;;;;8.00;6.75;;;;;;;;5022382;22;45476;-79
2021/08/13 03:55:03;;;;;;;;;5.50;5.50;;;;;;;;4999141;28;45413;-79
2021/08/13 03:57:28;;;;;;;;;10.00;7.67;;;;;;;;5018319;22;45590;-89
2021/08/13 04:05:04;;;;;;;;;9.25;4.25;;;;;;;;5099400;22;45462;-78
2021/08/13 04:07:29;;;;;;;;;8.00;6.25;;;;;;;;4992265;28;45477;-79
2021/08/13 04:09:55;;;;;;;;;9.00;6.00;;;;;;;;5001349;28;46401;-78
2021/08/13 04:12:20;;;;;;;;;7.50;6.00;;;;;;;;4993782;28;45543;-78
2021/08/13 04:14:45;;;;;;;;;8.00;6.00;;;;;;;;4993431;28;45534;-77
2021/08/13 04:17:11;;;;;;;;;6.25;5.25;;;;;;;;5002957;28;45551;-79
2021/08/13 04:19:36;;;;;;;;;9.25;6.25;;;;;;;;5060236;22;45728;-80
2021/08/13 04:22:02;;;;;;;;;7.75;7.00;;;;;;;;5015961;28;45700;-79
2021/08/13 04:24:27;;;;;;;;;7.75;7.75;;;;;;;;5014101;28;46306;-79
2021/08/13 04:26:53;;;;;;;;;11.25;9.50;;;;;;;;5119608;22;46372;-78
2021/08/13 04:29:18;;;;;;;;;10.00;7.00;;;;;;;;5122292;22;46069;-79
2021/08/13 04:31:43;;;;;;;;;10.00;8.67;;;;;;;;5205383;22;45471;-90
2021/08/13 04:34:08;;;;;;;;;8.00;8.00;;;;;;;;5003875;28;45555;-91
2021/08/13 04:36:41;;;;;;;;;9.67;6.67;;;;;;;;5004238;28;45378;-90
2021/08/13 04:39:06;;;;;;;;;11.25;8.75;;;;;;;;5001265;28;49067;-90
2021/08/13 04:41:31;;;;;;;;;13.33;9.33;;;;;;;;4996296;28;47152;-90
2021/08/13 04:43:57;;;;;;;;;9.25;9.00;;;;;;;;5090863;23;45423;-79
2021/08/13 04:46:31;;;;;;;;;7.67;6.00;;;;;;;;5009578;28;45621;-80
2021/08/13 04:49:02;;;;;;;;;8.75;7.50;;;;;;;;5095421;22;47409;-79
2021/08/13 04:51:27;;;;;;;;;11.25;8.00;;;;;;;;4252013;22;46278;-91
2021/08/13 04:53:52;;;;;;;;;7.33;6.00;;;;;;;;4982261;28;45438;-90
2021/08/13 04:56:17;;;;;;;;;7.00;7.00;;;;;;;;4981550;28;45623;-90
2021/08/13 04:58:43;;;;;;;;;6.00;6.00;;;;;;;;4979845;28;47350;-91
2021/08/13 05:01:08;;;;;;;;;7.00;7.00;;;;;;;;5023503;22;46309;-80
2021/08/13 05:03:33;;;;;;;;;11.25;8.00;;;;;;;;5135801;23;46080;-80
2021/08/13 05:05:58;;;;;;;;;8.00;7.50;;;;;;;;5008047;28;45707;-80
2021/08/13 05:08:26;;;;;;;;;8.00;5.50;;;;;;;;5010865;28;47291;-81
2021/08/13 05:10:52;;;;;;;;;8.00;7.50;;;;;;;;5151987;22;45600;-80
2021/08/13 05:13:20;;;;;;;;;7.00;6.00;;;;;;;;5011907;28;46130;-82
2021/08/13 05:15:45;;;;;;;;;5.00;5.00;;;;;;;;5020925;22;45626;-81
2021/08/13 05:18:10;;;;;;;;;5.25;5.25;;;;;;;;5066839;22;46044;-80
2021/08/13 05:20:35;;;;;;;;;4.75;3.00;;;;;;;;5009630;28;45532;-81
2021/08/13 05:23:00;;;;;;;;;12.25;6.25;;;;;;;;5002442;28;45609;-80
2021/08/13 05:25:26;;;;;;;;;8.00;5.00;;;;;;;;5009597;28;45549;-81
2021/08/13 05:27:51;;;;;;;;;8.50;5.00;;;;;;;;5044362;23;46368;-81
2021/08/13 05:30:16;;;;;;;;;6.00;6.00;;;;;;;;5083285;22;45549;-80
2021/08/13 05:32:42;;;;;;;;;6.50;6.50;;;;;;;;4998767;28;48365;-80
2021/08/13 05:35:11;;;;;;;;;6.25;5.50;;;;;;;;5012763;28;45371;-80
2021/08/13 05:37:36;;;;;;;;;5.00;5.00;;;;;;;;4998477;28;45549;-81
2021/08/13 05:40:02;;;;;;;;;8.00;5.00;;;;;;;;5165185;23;50055;-81
2021/08/13 05:42:28;;;;;;;;;5.00;4.00;;;;;;;;5017361;22;45538;-82
2021/08/13 05:44:53;;;;;;;;;7.50;6.00;;;;;;;;5006779;28;45562;-81
2021/08/13 05:47:18;;;;;;;;;6.00;5.75;;;;;;;;5013105;23;46501;-82
2021/08/13 05:49:59;;;;;;;;;7.00;5.50;;;;;;;;5024063;23;45334;-80
2021/08/13 05:52:24;;;;;;;;;10.25;5.50;;;;;;;;5032199;23;45701;-91
2021/08/13 05:54:49;;;;;;;;;4.75;4.50;;;;;;;;5001820;28;45560;-89
2021/08/13 05:57:15;;;;;;;;;5.00;5.00;;;;;;;;4998131;28;45569;-89
2021/08/13 05:59:40;;;;;;;;;8.00;6.00;;;;;;;;5017161;28;46512;-90
2021/08/13 06:02:05;;;;;;;;;7.33;6.33;;;;;;;;5038648;22;46050;-89
2021/08/13 06:04:31;;;;;;;;;7.50;5.25;;;;;;;;4996599;28;45639;-90
2021/08/13 06:06:56;;;;;;;;;8.00;5.33;;;;;;;;4999145;28;48492;-89
2021/08/13 06:09:21;;;;;;;;;10.33;5.33;;;;;;;;5002269;28;45546;-89
2021/08/13 06:11:46;;;;;;;;;7.25;5.00;;;;;;;;4992814;28;45422;-89
2021/08/13 06:14:11;;;;;;;;;5.00;3.67;;;;;;;;4995611;22;45673;-80
2021/08/13 06:16:40;;;;;;;;;7.00;6.67;;;;;;;;5036970;22;47150;-90
2021/08/13 06:19:05;;;;;;;;;6.50;6.00;;;;;;;;5005562;28;45500;-89
2021/08/13 06:21:31;;;;;;;;;7.00;4.25;;;;;;;;5021287;23;45809;-88
2021/08/13 06:23:56;;;;;;;;;6.75;5.00;;;;;;;;5006371;28;45530;-89
2021/08/13 06:26:21;;;;;;;;;4.00;4.00;;;;;;;;5008333;28;47997;-89
2021/08/13 06:28:46;;;;;;;;;4.67;3.00;;;;;;;;5007608;28;45742;-88
2021/08/13 06:31:12;;;;;;;;;5.67;4.33;;;;;;;;5003041;28;45439;-90
2021/08/13 06:33:37;;;;;;;;;4.67;4.67;;;;;;;;5011923;28;45463;-90
2021/08/13 06:38:37;;;;;;;;;3.50;3.50;;;;;;;;4988532;28;48636;-90
2021/08/13 06:43:36;;;;;;;;;8.25;5.00;;;;;;;;5010326;28;46041;-89
2021/08/13 06:46:01;;;;;;;;;6.67;5.33;;;;;;;;5011775;28;48433;-89
2021/08/13 06:48:26;;;;;;;;;3.50;3.50;;;;;;;;5013301;28;44873;-90
2021/08/13 06:50:52;;;;;;;;;5.50;4.25;;;;;;;;5011478;28;45537;-90
2021/08/13 06:53:17;;;;;;;;;7.67;5.00;;;;;;;;5010459;28;45313;-88
2021/08/13 06:55:42;;;;;;;;;10.00;5.33;;;;;;;;5015518;28;46258;-90
2021/08/13 06:58:07;;;;;;;;;5.25;4.50;;;;;;;;5083815;22;45449;-89
2021/08/13 07:00:33;;;;;;;;;9.00;5.75;;;;;;;;4994698;28;45871;-89
2021/08/13 07:02:58;;;;;;;;;5.25;5.00;;;;;;;;4994176;28;46071;-90
2021/08/13 07:05:48;;;;;;;;;7.00;5.00;;;;;;;;5070120;23;46109;-80
2021/08/13 07:08:14;;;;;;;;;4.50;4.50;;;;;;;;4993344;28;45622;-80
2021/08/13 07:10:39;;;;;;;;;5.00;5.00;;;;;;;;4995829;28;45615;-81
2021/08/13 07:13:09;;;;;;;;;6.25;6.00;;;;;;;;4996339;28;45848;-80
2021/08/13 07:15:34;;;;;;;;;6.75;4.50;;;;;;;;4998509;28;45979;-81
2021/08/13 07:18:03;;;;;;;;;7.25;7.00;;;;;;;;5005898;28;45638;-80
2021/08/13 07:20:28;;;;;;;;;6.00;6.00;;;;;;;;5000086;28;46430;-80
2021/08/13 07:22:53;;;;;;;;;5.25;5.25;;;;;;;;5006904;28;45522;-79
2021/08/13 07:25:18;;;;;;;;;3.50;3.50;;;;;;;;5010462;28;48700;-80
2021/08/13 07:27:44;;;;;;;;;4.25;3.00;;;;;;;;5054094;22;46067;-81
2021/08/13 07:30:10;;;;;;;;;5.50;3.00;;;;;;;;5009352;28;45428;-80
2021/08/13 07:32:35;;;;;;;;;5.25;4.00;;;;;;;;5005297;28;45573;-81
2021/08/13 07:35:00;;;;;;;;;3.25;2.75;;;;;;;;5002323;28;48446;-81
2021/08/13 07:37:26;;;;;;;;;3.25;1.50;;;;;;;;5165364;22;47980;-90
2021/08/13 07:39:51;;;;;;;;;5.50;4.75;;;;;;;;5136130;22;46798;-89
2021/08/13 07:42:17;;;;;;;;;2.00;2.00;;;;;;;;4998146;28;45677;-89
2021/08/13 07:44:42;;;;;;;;;4.00;2.00;;;;;;;;5002410;28;45479;-90
2021/08/13 07:47:07;;;;;;;;;3.50;2.00;;;;;;;;5047555;22;47429;-81
2021/08/13 07:49:35;;;;;;;;;3.50;2.00;;;;;;;;4996371;28;46605;-81
2021/08/13 07:52:00;;;;;;;;;2.75;2.75;;;;;;;;4995470;28;46161;-81
2021/08/13 07:54:26;;;;;;;;;5.00;2.50;;;;;;;;4998806;28;45610;-82
2021/08/13 07:56:51;;;;;;;;;5.00;3.00;;;;;;;;4991705;28;45450;-82
2021/08/13 07:59:16;;;;;;;;;3.50;2.75;;;;;;;;4999024;28;50903;-82
2021/08/13 08:02:05;;;;;;;;;5.00;2.75;;;;;;;;4994696;28;45915;-80
2021/08/13 08:04:30;;;;;;;;;5.25;3.50;;;;;;;;4994544;28;45470;-81
2021/08/13 08:06:57;;;;;;;;;3.00;2.50;;;;;;;;4989408;28;45655;-79
2021/08/13 08:09:25;;;;;;;;;2.50;2.50;;;;;;;;5016921;23;1222282;-81
2021/08/13 08:11:51;;;;;;;;;2.50;2.50;;;;;;;;5014068;28;45551;-80
2021/08/13 08:14:16;;;;;;;;;6.25;3.25;;;;;;;;5018747;28;45375;-80
2021/08/13 08:16:41;;;;;;;;;4.00;3.00;;;;;;;;5011165;28;45825;-80
2021/08/13 08:19:06;;;;;;;;;3.00;3.00;;;;;;;;5023944;28;51225;-79
2021/08/13 08:21:32;;;;;;;;;3.75;3.75;;;;;;;;5026254;28;45640;-81
2021/08/13 08:23:57;;;;;;;;;2.50;2.50;;;;;;;;5021784;28;45488;-81
2021/08/13 08:26:22;;;;;;;;;3.75;2.75;;;;;;;;5020752;28;45491;-80
2021/08/13 08:28:48;;;;;;;;;2.75;2.75;;;;;;;;5021547;28;45957;-81
2021/08/13 08:31:15;;;;;;;;;4.00;2.25;;;;;;;;5035845;22;45312;-92
2021/08/13 08:33:40;;;;;;;;;3.00;3.00;;;;;;;;5019472;28;45683;-91
2021/08/13 08:36:06;;;;;;;;;2.00;2.00;;;;;;;;5033606;28;45425;-91
2021/08/13 08:38:32;;;;;;;;;3.00;3.00;;;;;;;;5021826;28;45883;-91
2021/08/13 08:41:01;;;;;;;;;5.00;3.25;;;;;;;;5029289;28;45536;-94
2021/08/13 08:43:26;;;;;;;;;4.00;4.00;;;;;;;;5042165;28;48195;-91
2021/08/13 08:45:52;;;;;;;;;3.00;3.00;;;;;;;;5031792;28;45338;-92
2021/08/13 08:48:17;;;;;;;;;1.00;1.00;;;;;;;;5037534;28;45314;-90
2021/08/13 08:50:43;;;;;;;;;4.25;4.25;;;;;;;;5028363;28;45549;-91
2021/08/13 08:53:13;;;;;;;;;4.00;3.00;;;;;;;;5030566;28;45444;-92
2021/08/13 08:55:38;;;;;;;;;6.25;3.00;;;;;;;;5034349;28;45299;-94
2021/08/13 08:58:23;;;;;;;;;3.25;3.00;;;;;;;;5038606;28;45456;-91
2021/08/13 09:00:48;;;;;;;;;3.00;3.00;;;;;;;;5036472;28;45327;-90
2021/08/13 09:05:43;;;;;;;;;3.00;3.00;;;;;;;;4993369;28;45696;-91
2021/08/13 09:08:08;;;;;;;;;2.75;2.75;;;;;;;;4991033;28;45218;-92
2021/08/13 09:10:33;;;;;;;;;3.33;3.00;;;;;;;;4987539;28;45278;-91
2021/08/13 09:13:03;;;;;;;;;3.75;3.00;;;;;;;;4991550;28;45491;-91
2021/08/13 09:15:29;;;;;;;;;3.75;2.75;;;;;;;;5051380;23;45637;-81
2021/08/13 09:18:13;;;;;;;;;3.25;3.25;;;;;;;;4974973;28;45975;-82
2021/08/13 09:20:40;;;;;;;;;3.50;3.00;;;;;;;;5020846;22;45484;-81
2021/08/13 09:23:05;;;;;;;;;4.25;3.00;;;;;;;;5073686;22;48764;-79
2021/08/13 09:28:10;;;;;;;;;3.00;3.00;;;;;;;;4989217;23;46910;-81
2021/08/13 09:30:36;;;;;;;;;3.00;2.00;;;;;;;;5013417;28;45590;-80
2021/08/13 09:33:05;;;;;;;;;5.00;4.00;;;;;;;;5116068;22;48597;-80
2021/08/13 09:35:32;;;;;;;;;2.50;2.50;;;;;;;;4995719;28;46378;-82
2021/08/13 09:37:57;;;;;;;;;3.00;3.00;;;;;;;;5000519;28;45799;-81
2021/08/13 09:40:23;;;;;;;;;3.00;3.00;;;;;;;;4997101;28;45590;-80
2021/08/13 09:42:49;;;;;;;;;3.25;3.25;;;;;;;;5028478;23;45303;-92
2021/08/13 09:45:14;;;;;;;;;3.25;3.00;;;;;;;;5118769;22;45457;-89
2021/08/13 09:47:41;;;;;;;;;4.25;3.00;;;;;;;;5029520;28;45569;-93
2021/08/13 09:56:03;;;;;;;;;;;;;;;;;;;;;
2021/08/13 10:00:58;;;;;;;;;3.00;3.00;;;;;;;;4967850;28;45538;-82
2021/08/13 10:03:23;;;;;;;;;3.50;3.50;;;;;;;;4977338;28;45669;-83
2021/08/13 10:06:03;;;;;;;;;4.00;3.00;;;;;;;;4971834;28;45646;-83
2021/08/13 10:08:41;;;;;;;;;5.00;3.75;;;;;;;;5017160;22;45383;-90
2021/08/13 10:11:13;;;;;;;;;4.25;4.00;;;;;;;;5011059;28;45626;-90
2021/08/13 10:13:42;;;;;;;;;4.50;4.50;;;;;;;;5009058;28;45377;-90
2021/08/13 10:16:26;;;;;;;;;3.75;3.75;;;;;;;;5008748;28;45534;-91
2021/08/13 10:18:58;;;;;;;;;5.75;5.00;;;;;;;;4998943;28;45487;-91
2021/08/13 10:21:28;;;;;;;;;4.75;4.00;;;;;;;;5010647;28;45459;-90
2021/08/13 10:23:54;;;;;;;;;5.00;4.00;;;;;;;;5009221;28;47245;-91
2021/08/13 10:26:20;;;;;;;;;3.00;3.00;;;;;;;;5002305;28;45823;-91
2021/08/13 10:28:46;;;;;;;;;4.50;3.00;;;;;;;;5002820;28;45435;-90
2021/08/13 10:31:12;;;;;;;;;7.00;5.00;;;;;;;;5001609;28;45363;-91
2021/08/13 10:33:38;;;;;;;;;8.00;5.00;;;;;;;;5008611;28;45465;-93
2021/08/13 10:36:04;;;;;;;;;7.00;7.00;;;;;;;;5007430;28;45518;-91
2021/08/13 10:38:32;;;;;;;;;8.25;6.00;;;;;;;;5003641;28;45461;-91
2021/08/13 10:40:58;;;;;;;;;7.00;5.50;;;;;;;;5018227;28;45599;-91
2021/08/13 10:43:32;;;;;;;;;8.00;5.00;;;;;;;;5001641;28;45550;-90
2021/08/13 10:46:00;;;;;;;;;5.50;5.50;;;;;;;;4998635;28;45697;-91
2021/08/13 10:48:27;;;;;;;;;9.00;5.50;;;;;;;;5007984;28;45269;-89
2021/08/13 10:50:56;;;;;;;;;8.50;6.25;;;;;;;;5012354;28;45613;-92
2021/08/13 10:53:29;;;;;;;;;9.00;6.00;;;;;;;;5000366;28;45587;-92
2021/08/13 10:55:55;;;;;;;;;5.50;5.00;;;;;;;;5005446;28;45494;-89
2021/08/13 10:58:51;;;;;;;;;7.25;5.50;;;;;;;;5008971;28;45556;-91
2021/08/13 11:01:23;;;;;;;;;4.00;4.00;;;;;;;;4984057;28;45666;-91
2021/08/13 11:03:54;;;;;;;;;7.25;6.00;;;;;;;;5007669;28;46314;-91
2021/08/13 11:06:38;;;;;;;;;5.25;5.25;;;;;;;;5005039;28;45490;-91
2021/08/13 11:09:10;;;;;;;;;8.00;8.00;;;;;;;;5003280;28;45398;-90
2021/08/13 11:11:51;;;;;;;;;9.00;7.25;;;;;;;;5004684;28;45468;-89
2021/08/13 11:14:29;;;;;;;;;7.75;7.00;;;;;;;;5008535;28;46437;-91
2021/08/13 11:16:55;;;;;;;;;7.25;6.00;;;;;;;;5005261;28;45867;-92
2021/08/13 11:19:20;;;;;;;;;9.75;6.00;;;;;;;;5008906;28;45563;-91
2021/08/13 11:21:49;;;;;;;;;10.00;9.00;;;;;;;;5005689;28;45599;-90
2021/08/13 11:24:15;;;;;;;;;9.25;5.75;;;;;;;;5021706;28;48074;-91
2021/08/13 11:26:58;;;;;;;;;13.25;6.50;;;;;;;;5008011;28;45507;-92
2021/08/13 11:29:39;;;;;;;;;4.75;4.75;;;;;;;;5001896;28;45328;-91
2021/08/13 11:32:04;;;;;;;;;7.00;6.25;;;;;;;;5000650;28;45398;-90
2021/08/13 11:34:49;;;;;;;;;8.00;7.00;;;;;;;;5007775;28;47456;-91
2021/08/13 11:37:34;;;;;;;;;9.25;9.25;;;;;;;;4997879;28;45618;-90
2021/08/13 11:40:06;;;;;;;;;10.50;9.00;;;;;;;;4986779;28;45377;-90
2021/08/13 11:42:32;;;;;;;;;8.00;8.00;;;;;;;;5010622;28;45633;-90
2021/08/13 11:44:58;;;;;;;;;11.75;7.50;;;;;;;;5010191;28;47240;-91
2021/08/13 11:47:23;;;;;;;;;10.25;7.00;;;;;;;;4999892;28;46675;-90
2021/08/13 11:49:49;;;;;;;;;9.00;7.75;;;;;;;;5000024;28;45444;-91
2021/08/13 11:52:18;;;;;;;;;11.75;9.00;;;;;;;;5000358;28;45772;-90
2021/08/13 11:54:43;;;;;;;;;7.25;7.00;;;;;;;;5002864;28;46676;-92
2021/08/13 11:57:12;;;;;;;;;11.33;10.67;;;;;;;;5008614;28;45363;-90
2021/08/13 11:59:37;;;;;;;;;11.00;9.00;;;;;;;;5003677;28;45465;-89
2021/08/13 12:02:03;;;;;;;;;12.25;9.00;;;;;;;;5007531;28;45417;-91
2021/08/13 12:04:28;;;;;;;;;11.00;10.00;;;;;;;;5008422;28;47234;-89
2021/08/13 12:07:03;;;;;;;;;12.75;9.00;;;;;;;;5000792;28;45442;-90
2021/08/13 12:09:35;;;;;;;;;10.50;7.75;;;;;;;;4999844;28;45572;-91
2021/08/13 12:12:01;;;;;;;;;11.00;9.00;;;;;;;;5004465;28;45607;-91
2021/08/13 12:14:26;;;;;;;;;12.00;10.00;;;;;;;;4999126;28;48296;-91
2021/08/13 12:16:55;;;;;;;;;10.50;9.75;;;;;;;;5005689;28;55781;-90
2021/08/13 12:19:21;;;;;;;;;7.50;7.25;;;;;;;;4999724;28;45478;-90
2021/08/13 12:21:54;;;;;;;;;11.75;9.75;;;;;;;;4997776;28;45327;-93
2021/08/13 12:24:33;;;;;;;;;11.50;9.00;;;;;;;;5001936;28;45551;-90
2021/08/13 12:27:05;;;;;;;;;12.00;9.00;;;;;;;;5005161;28;45414;-90
2021/08/13 12:29:31;;;;;;;;;11.25;11.25;;;;;;;;5001615;28;46160;-91
2021/08/13 12:31:57;;;;;;;;;8.00;8.00;;;;;;;;5011833;28;45554;-91
2021/08/13 12:34:24;;;;;;;;;8.00;8.00;;;;;;;;5006495;28;47088;-90
2021/08/13 12:37:01;;;;;;;;;11.75;11.25;;;;;;;;5001469;28;45361;-92
2021/08/13 12:39:29;;;;;;;;;11.50;9.75;;;;;;;;5000285;28;45634;-91
2021/08/13 12:41:55;;;;;;;;;11.75;10.00;;;;;;;;5000746;28;45403;-91
2021/08/13 12:44:20;;;;;;;;;11.50;10.25;;;;;;;;4997712;28;46648;-91
2021/08/13 12:46:46;;;;;;;;;10.50;8.75;;;;;;;;5003540;28;45402;-91
2021/08/13 12:49:18;;;;;;;;;10.75;9.75;;;;;;;;4996277;28;45415;-90
2021/08/13 12:51:44;;;;;;;;;7.50;7.00;;;;;;;;5011189;28;45539;-92
2021/08/13 12:54:28;;;;;;;;;9.50;9.50;;;;;;;;5001370;28;47289;-92
2021/08/13 12:56:57;;;;;;;;;8.00;8.00;;;;;;;;5001805;28;46280;-91
2021/08/13 12:59:29;;;;;;;;;10.00;10.00;;;;;;;;5006595;28;45639;-92
2021/08/13 13:01:55;;;;;;;;;10.00;10.00;;;;;;;;5007616;28;45454;-90
2021/08/13 13:04:20;;;;;;;;;8.00;8.00;;;;;;;;4994726;28;47476;-91
2021/08/13 13:06:48;;;;;;;;;10.50;9.25;;;;;;;;5006768;28;45515;-90
2021/08/13 13:09:26;;;;;;;;;12.25;9.75;;;;;;;;5010464;28;45289;-90
2021/08/13 13:12:10;;;;;;;;;10.75;10.00;;;;;;;;5002520;28;45556;-90
2021/08/13 13:14:36;;;;;;;;;8.25;8.00;;;;;;;;5003671;28;45504;-92
2021/08/13 13:17:08;;;;;;;;;13.75;10.50;;;;;;;;5008970;28;45520;-92
2021/08/13 13:19:34;;;;;;;;;14.00;8.00;;;;;;;;5010249;28;45511;-90
2021/08/13 13:22:21;;;;;;;;;13.00;8.50;;;;;;;;4998055;28;45530;-90
2021/08/13 13:25:10;;;;;;;;;9.25;9.00;;;;;;;;5005737;28;45596;-90
2021/08/13 13:28:07;;;;;;;;;8.75;8.00;;;;;;;;5004772;28;45508;-90
2021/08/13 13:30:37;;;;;;;;;8.50;8.00;;;;;;;;4982460;28;45511;-91
2021/08/13 13:33:07;;;;;;;;;10.25;9.25;;;;;;;;4961972;28;46872;-90
2021/08/13 13:35:33;;;;;;;;;11.25;8.00;;;;;;;;4961669;28;46561;-91
2021/08/13 13:38:00;;;;;;;;;13.75;10.00;;;;;;;;4967673;28;45567;-92
2021/08/13 13:40:25;;;;;;;;;12.00;9.75;;;;;;;;4959660;28;45408;-92
2021/08/13 13:42:54;;;;;;;;;8.75;8.00;;;;;;;;4959775;28;45336;-90
2021/08/13 13:45:19;;;;;;;;;10.75;7.50;;;;;;;;4952815;28;48276;-90
2021/08/13 13:47:45;;;;;;;;;8.75;8.25;;;;;;;;4976712;28;45843;-90
2021/08/13 13:50:11;;;;;;;;;8.00;7.75;;;;;;;;4958091;28;45742;-90
2021/08/13 13:52:36;;;;;;;;;9.25;6.00;;;;;;;;4955431;28;45512;-90
2021/08/13 13:55:02;;;;;;;;;8.00;8.00;;;;;;;;4956826;28;47274;-90
2021/08/13 13:57:33;;;;;;;;;8.25;7.00;;;;;;;;4958261;28;45907;-90
2021/08/13 13:59:58;;;;;;;;;10.00;9.00;;;;;;;;4969168;28;45992;-92
2021/08/13 14:02:23;;;;;;;;;9.50;8.50;;;;;;;;4970180;28;45499;-91
2021/08/13 14:04:50;;;;;;;;;9.00;9.00;;;;;;;;4954450;28;47183;-91
2021/08/13 14:07:15;;;;;;;;;9.00;9.00;;;;;;;;5003904;28;45418;-91
2021/08/13 14:09:40;;;;;;;;;9.33;7.67;;;;;;;;5011633;28;45483;-90
2021/08/13 14:12:05;;;;;;;;;10.00;9.00;;;;;;;;4998835;28;45675;-91
2021/08/13 14:14:31;;;;;;;;;12.00;7.00;;;;;;;;5002440;28;47769;-91
2021/08/13 14:16:56;;;;;;;;;8.25;7.25;;;;;;;;4998615;28;45573;-91
2021/08/13 14:19:21;;;;;;;;;10.00;8.50;;;;;;;;5010208;28;46613;-90
2021/08/13 14:21:47;;;;;;;;;7.33;7.00;;;;;;;;5008013;28;45439;-92
2021/08/13 14:24:12;;;;;;;;;9.50;7.75;;;;;;;;5010423;28;47215;-90
2021/08/13 14:26:37;;;;;;;;;10.75;10.00;;;;;;;;5010730;28;45490;-91
2021/08/13 14:29:02;;;;;;;;;12.00;9.00;;;;;;;;5006673;28;45614;-91
2021/08/13 14:31:28;;;;;;;;;9.00;7.75;;;;;;;;5002422;28;45387;-91
2021/08/13 14:33:57;;;;;;;;;9.50;8.50;;;;;;;;5006867;28;47193;-91
2021/08/13 14:36:23;;;;;;;;;10.00;9.50;;;;;;;;5011433;28;45528;-90
2021/08/13 14:39:08;;;;;;;;;6.75;6.75;;;;;;;;5006781;28;45450;-90
2021/08/13 14:41:34;;;;;;;;;12.00;8.50;;;;;;;;4965183;28;50383;-90
2021/08/13 14:44:09;;;;;;;;;10.25;10.00;;;;;;;;4951733;28;47670;-90
2021/08/13 14:46:42;;;;;;;;;7.00;6.25;;;;;;;;4969197;28;45460;-92
2021/08/13 14:49:07;;;;;;;;;11.25;8.00;;;;;;;;4963276;28;45662;-90
2021/08/13 14:51:33;;;;;;;;;10.00;10.00;;;;;;;;4944793;28;52722;-91
2021/08/13 14:53:59;;;;;;;;;9.00;9.00;;;;;;;;4941808;28;47213;-91
2021/08/13 14:56:27;;;;;;;;;9.50;8.00;;;;;;;;4967160;28;45565;-90
2021/08/13 14:58:58;;;;;;;;;9.50;8.25;;;;;;;;4951175;28;45495;-92
2021/08/13 15:01:26;;;;;;;;;7.00;7.00;;;;;;;;4970225;28;45861;-90
2021/08/13 15:03:52;;;;;;;;;8.25;7.75;;;;;;;;4960085;28;45465;-93
2021/08/13 15:11:41;;;;;;;;;8.00;8.00;;;;;;;;5024257;23;47002;-81
2021/08/13 15:14:09;;;;;;;;;7.00;7.00;;;;;;;;5062731;22;45512;-82
2021/08/13 15:16:35;;;;;;;;;11.75;8.00;;;;;;;;5348425;22;45544;-89